Terminal Aerodrome Forecast
Issued by NWS Springfield, MO

Home | Current Version | Previous Version | Text Only | Print | Product List | Glossary On
Versions: 1 2 3 4 5 6 7 8 9 10 11 12 13 14 15 16 17 18 19 20
000
FTUS43 KSGF 231400 AAA
TAFSGF
TAF AMD
KSGF 231410Z 2314/2412 17010KT P6SM VCSH BKN060
      TEMPO 2314/2316 -SHRA SCT050 BKN100
     FM231900 21006KT P6SM BKN100 BKN250=

USA.gov is the U.S. government's official web portal to all federal, state and local government web resources and services.